createdAt,value
2019-02-20T00:00:28.996Z,1013.23
2019-02-20T00:01:28.965Z,1013.22
2019-02-20T00:02:28.911Z,1013.28
2019-02-20T00:03:28.882Z,1013.27
2019-02-20T00:04:28.847Z,1013.34
2019-02-20T00:05:28.808Z,1013.30
2019-02-20T00:06:28.773Z,1013.31
2019-02-20T00:07:28.738Z,1013.31
2019-02-20T00:08:28.688Z,1013.33
2019-02-20T00:09:28.648Z,1013.30
2019-02-20T00:10:28.613Z,1013.30
2019-02-20T00:11:28.586Z,1013.28
2019-02-20T00:12:28.548Z,1013.27
2019-02-20T00:13:28.494Z,1013.26
2019-02-20T00:14:28.471Z,1013.29
2019-02-20T00:15:28.426Z,1013.28
2019-02-20T00:16:28.391Z,1013.29
2019-02-20T00:17:28.371Z,1013.29
2019-02-20T00:18:28.309Z,1013.30
2019-02-20T00:19:28.314Z,1013.29
2019-02-20T00:20:28.242Z,1013.27
2019-02-20T00:21:28.207Z,1013.29
2019-02-20T00:22:28.166Z,1013.27
2019-02-20T00:23:28.138Z,1013.31
2019-02-20T00:24:28.098Z,1013.29
2019-02-20T00:25:28.048Z,1013.28
2019-02-20T00:26:28.031Z,1013.28
2019-02-20T00:27:27.979Z,1013.32
2019-02-20T00:28:27.938Z,1013.26
2019-02-20T00:29:27.919Z,1013.27
2019-02-20T00:30:27.875Z,1013.28
2019-02-20T00:31:27.833Z,1013.28
2019-02-20T00:32:27.789Z,1013.27
2019-02-20T00:33:27.755Z,1013.28
2019-02-20T00:34:27.718Z,1013.29
2019-02-20T00:35:27.691Z,1013.29
2019-02-20T00:36:27.672Z,1013.27
2019-02-20T00:37:27.602Z,1013.30
2019-02-20T00:38:27.565Z,1013.32
2019-02-20T00:39:27.529Z,1013.31
2019-02-20T00:40:27.489Z,1013.31
2019-02-20T00:41:27.451Z,1013.31
2019-02-20T00:42:27.418Z,1013.30
2019-02-20T00:43:27.393Z,1013.32
2019-02-20T00:44:27.343Z,1013.31
2019-02-20T00:45:27.304Z,1013.31
2019-02-20T00:46:27.280Z,1013.31
2019-02-20T00:47:27.230Z,1013.30
2019-02-20T00:48:27.194Z,1013.30
2019-02-20T00:49:27.148Z,1013.31
2019-02-20T00:50:27.116Z,1013.36
2019-02-20T00:51:27.096Z,1013.27
2019-02-20T00:52:27.043Z,1013.30
2019-02-20T00:53:27.000Z,1013.30
2019-02-20T00:54:26.970Z,1013.29
2019-02-20T00:55:26.926Z,1013.30
2019-02-20T00:56:26.900Z,1013.33
2019-02-20T00:57:26.870Z,1013.33
2019-02-20T00:58:26.826Z,1013.34
2019-02-20T00:59:26.782Z,1013.33
2019-02-20T01:00:26.739Z,1013.32
2019-02-20T01:01:26.705Z,1013.31
2019-02-20T01:02:26.666Z,1013.28
2019-02-20T01:03:26.626Z,1013.30
2019-02-20T01:04:26.590Z,1013.32
2019-02-20T01:05:26.550Z,1013.30
2019-02-20T01:06:26.522Z,1013.29
2019-02-20T01:07:26.493Z,1013.35
2019-02-20T01:08:26.445Z,1013.34
2019-02-20T01:09:26.401Z,1013.33
2019-02-20T01:10:26.374Z,1013.32
2019-02-20T01:11:26.325Z,1013.31
2019-02-20T01:12:26.292Z,1013.32
2019-02-20T01:13:26.270Z,1013.35
2019-02-20T01:14:26.210Z,1013.34
2019-02-20T01:15:26.184Z,1013.32
2019-02-20T01:16:26.136Z,1013.30
2019-02-20T01:17:26.107Z,1013.28
2019-02-20T01:18:26.061Z,1013.31
2019-02-20T01:19:26.037Z,1013.33
2019-02-20T01:20:25.985Z,1013.31
2019-02-20T01:21:25.960Z,1013.34
2019-02-20T01:22:25.916Z,1013.31
2019-02-20T01:23:25.879Z,1013.31
2019-02-20T01:24:25.836Z,1013.28
2019-02-20T01:25:25.801Z,1013.28
2019-02-20T01:26:25.770Z,1013.27
2019-02-20T01:27:25.724Z,1013.26
2019-02-20T01:28:25.697Z,1013.24
2019-02-20T01:29:25.739Z,1013.21
2019-02-20T01:30:25.615Z,1013.23
2019-02-20T01:31:25.571Z,1013.16
2019-02-20T01:32:25.538Z,1013.18
2019-02-20T01:33:25.500Z,1013.20
2019-02-20T01:34:25.481Z,1013.15
2019-02-20T01:35:25.448Z,1013.17
2019-02-20T01:36:25.386Z,1013.16
2019-02-20T01:37:25.347Z,1013.18
2019-02-20T01:38:25.312Z,1013.13
2019-02-20T01:39:25.278Z,1013.14
2019-02-20T01:40:25.237Z,1013.16
2019-02-20T01:41:25.201Z,1013.18
2019-02-20T01:42:25.167Z,1013.15
2019-02-20T01:43:25.130Z,1013.16
2019-02-20T01:44:25.092Z,1013.15
2019-02-20T01:45:25.045Z,1013.13
2019-02-20T01:46:25.012Z,1013.14
2019-02-20T01:47:24.967Z,1013.09
2019-02-20T01:48:24.938Z,1013.10
2019-02-20T01:49:24.905Z,1013.09
2019-02-20T01:50:24.862Z,1013.12
2019-02-20T01:51:24.821Z,1013.14
2019-02-20T01:52:24.786Z,1013.15
2019-02-20T01:53:24.741Z,1013.13
2019-02-20T01:54:24.713Z,1013.13
2019-02-20T01:55:24.671Z,1013.13
2019-02-20T01:56:24.631Z,1013.09
2019-02-20T01:57:24.593Z,1013.07
2019-02-20T01:58:24.557Z,1013.07
2019-02-20T01:59:24.523Z,1013.05
2019-02-20T02:00:24.472Z,1013.11
2019-02-20T02:01:24.437Z,1013.09
2019-02-20T02:02:24.407Z,1013.14
2019-02-20T02:03:24.372Z,1013.15
2019-02-20T02:04:24.332Z,1013.10
2019-02-20T02:05:24.291Z,1013.13
2019-02-20T02:06:24.266Z,1013.16
2019-02-20T02:07:24.222Z,1013.09
2019-02-20T02:08:24.182Z,1013.12
2019-02-20T02:09:24.133Z,1013.11
2019-02-20T02:10:24.102Z,1013.09
2019-02-20T02:11:24.078Z,1013.10
2019-02-20T02:12:24.027Z,1013.07
2019-02-20T02:13:23.993Z,1013.06
2019-02-20T02:14:23.962Z,1013.04
2019-02-20T02:15:23.923Z,1013.05
2019-02-20T02:16:23.877Z,1013.05
2019-02-20T02:17:23.843Z,1013.01
2019-02-20T02:18:23.808Z,1013.03
2019-02-20T02:19:23.761Z,1013.06
2019-02-20T02:20:23.725Z,1013.01
2019-02-20T02:21:23.692Z,1013.05
2019-02-20T02:22:23.659Z,1013.01
2019-02-20T02:23:23.614Z,1012.98
2019-02-20T02:24:23.568Z,1013.00
2019-02-20T02:25:23.543Z,1013.02
2019-02-20T02:26:23.502Z,1012.98
2019-02-20T02:27:23.458Z,1013.02
2019-02-20T02:28:23.419Z,1012.95
2019-02-20T02:29:23.388Z,1012.98
2019-02-20T02:30:23.360Z,1012.96
2019-02-20T02:31:23.313Z,1012.99
2019-02-20T02:32:23.268Z,1012.97
2019-02-20T02:33:23.234Z,1012.99
2019-02-20T02:34:23.204Z,1012.94
2019-02-20T02:35:23.163Z,1012.97
2019-02-20T02:36:23.132Z,1012.99
2019-02-20T02:37:23.085Z,1012.99
2019-02-20T02:38:23.059Z,1013.01
2019-02-20T02:39:23.004Z,1012.98
2019-02-20T02:40:22.965Z,1012.97
2019-02-20T02:41:22.935Z,1012.96
2019-02-20T02:42:22.893Z,1012.93
2019-02-20T02:43:22.863Z,1012.99
2019-02-20T02:44:22.823Z,1012.97
2019-02-20T02:45:22.793Z,1012.92
2019-02-20T02:46:22.742Z,1012.94
2019-02-20T02:47:22.710Z,1012.88
2019-02-20T02:48:22.669Z,1012.93
2019-02-20T02:49:22.630Z,1012.93
2019-02-20T02:50:22.601Z,1012.89
2019-02-20T02:51:22.553Z,1012.89
2019-02-20T02:52:22.518Z,1012.88
2019-02-20T02:53:30.460Z,1012.89
2019-02-20T02:54:22.441Z,1012.89
2019-02-20T02:55:22.395Z,1012.89
2019-02-20T02:56:22.368Z,1012.90
2019-02-20T02:57:22.361Z,1012.89
2019-02-20T02:58:22.292Z,1012.89
2019-02-20T02:59:22.278Z,1012.89
2019-02-20T03:00:22.266Z,1012.91
2019-02-20T03:01:22.182Z,1012.95
2019-02-20T03:02:22.151Z,1012.92
2019-02-20T03:03:22.104Z,1012.91
2019-02-20T03:04:22.086Z,1012.94
2019-02-20T03:05:22.044Z,1012.94
2019-02-20T03:06:21.991Z,1012.99
2019-02-20T03:07:21.954Z,1012.99
2019-02-20T03:08:21.934Z,1013.00
2019-02-20T03:09:21.884Z,1013.01
2019-02-20T03:10:21.839Z,1013.02
2019-02-20T03:11:21.810Z,1013.06
2019-02-20T03:12:21.765Z,1013.07
2019-02-20T03:13:21.741Z,1013.09
2019-02-20T03:14:21.694Z,1013.11
2019-02-20T03:15:21.653Z,1013.13
2019-02-20T03:16:21.608Z,1013.13
2019-02-20T03:17:21.584Z,1013.15
2019-02-20T03:18:21.534Z,1013.13
2019-02-20T03:19:21.502Z,1013.12
2019-02-20T03:20:21.460Z,1013.11
2019-02-20T03:21:21.427Z,1013.11
2019-02-20T03:22:21.390Z,1013.09
2019-02-20T03:23:21.352Z,1013.11
2019-02-20T03:24:21.310Z,1013.08
2019-02-20T03:25:21.283Z,1013.10
2019-02-20T03:26:21.238Z,1013.08
2019-02-20T03:27:21.205Z,1013.10
2019-02-20T03:28:21.161Z,1013.08
2019-02-20T03:29:21.123Z,1013.10
2019-02-20T03:30:21.083Z,1013.14
2019-02-20T03:31:21.052Z,1013.17
2019-02-20T03:32:21.016Z,1013.11
2019-02-20T03:33:20.989Z,1013.15
2019-02-20T03:34:20.942Z,1013.11
2019-02-20T03:35:20.902Z,1013.09
2019-02-20T03:36:20.860Z,1013.10
2019-02-20T03:37:20.832Z,1013.11
2019-02-20T03:38:30.068Z,1013.12
2019-02-20T03:39:20.757Z,1013.11
2019-02-20T03:40:20.714Z,1013.17
2019-02-20T03:41:20.737Z,1013.18
2019-02-20T03:42:20.648Z,1013.15
2019-02-20T03:43:20.600Z,1013.15
2019-02-20T03:44:20.561Z,1013.14
2019-02-20T03:45:20.544Z,1013.17
2019-02-20T03:46:20.493Z,1013.16
2019-02-20T03:47:20.447Z,1013.19
2019-02-20T03:48:20.409Z,1013.17
2019-02-20T03:49:20.380Z,1013.17
2019-02-20T03:50:20.330Z,1013.14
2019-02-20T03:51:20.307Z,1013.15
2019-02-20T03:52:20.256Z,1013.13
2019-02-20T03:53:20.239Z,1013.15
2019-02-20T03:54:20.179Z,1013.14
2019-02-20T03:55:20.151Z,1013.13
2019-02-20T03:56:20.115Z,1013.15
2019-02-20T03:57:20.084Z,1013.13
2019-02-20T03:58:20.037Z,1013.13
2019-02-20T03:59:20.004Z,1013.17
2019-02-20T04:00:19.962Z,1013.15
2019-02-20T04:01:19.924Z,1013.16
2019-02-20T04:02:19.890Z,1013.16
2019-02-20T04:03:19.848Z,1013.16
2019-02-20T04:04:19.803Z,1013.13
2019-02-20T04:05:19.775Z,1013.17
2019-02-20T04:06:19.729Z,1013.18
2019-02-20T04:07:19.708Z,1013.17
2019-02-20T04:08:19.662Z,1013.14
2019-02-20T04:09:19.618Z,1013.18
2019-02-20T04:10:19.581Z,1013.19
2019-02-20T04:11:19.549Z,1013.15
2019-02-20T04:12:19.503Z,1013.18
2019-02-20T04:13:19.473Z,1013.18
2019-02-20T04:14:19.443Z,1013.16
2019-02-20T04:15:19.395Z,1013.17
2019-02-20T04:16:19.359Z,1013.19
2019-02-20T04:17:19.319Z,1013.18
2019-02-20T04:18:19.294Z,1013.14
2019-02-20T04:19:19.251Z,1013.15
2019-02-20T04:20:19.213Z,1013.11
2019-02-20T04:21:19.168Z,1013.15
2019-02-20T04:22:19.138Z,1013.16
2019-02-20T04:23:19.094Z,1013.14
2019-02-20T04:24:19.064Z,1013.14
2019-02-20T04:25:19.025Z,1013.15
2019-02-20T04:26:18.983Z,1013.17
2019-02-20T04:27:18.954Z,1013.17
2019-02-20T04:28:18.916Z,1013.14
2019-02-20T04:29:18.869Z,1013.14
2019-02-20T04:30:18.838Z,1013.16
2019-02-20T04:31:18.798Z,1013.12
2019-02-20T04:32:18.766Z,1013.14
2019-02-20T04:33:18.729Z,1013.16
2019-02-20T04:34:18.708Z,1013.13
2019-02-20T04:35:18.656Z,1013.15
2019-02-20T04:36:18.621Z,1013.16
2019-02-20T04:37:18.575Z,1013.18
2019-02-20T04:38:18.542Z,1013.20
2019-02-20T04:39:18.504Z,1013.17
2019-02-20T04:40:18.476Z,1013.18
2019-02-20T04:41:18.420Z,1013.20
2019-02-20T04:42:18.401Z,1013.20
2019-02-20T04:43:18.352Z,1013.17
2019-02-20T04:44:18.311Z,1013.16
2019-02-20T04:45:18.276Z,1013.15
2019-02-20T04:46:18.245Z,1013.17
2019-02-20T04:47:18.202Z,1013.17
2019-02-20T04:48:18.179Z,1013.17
2019-02-20T04:49:18.135Z,1013.14
2019-02-20T04:50:18.090Z,1013.14
2019-02-20T04:51:18.048Z,1013.15
2019-02-20T04:52:18.019Z,1013.15
2019-02-20T04:53:17.980Z,1013.12
2019-02-20T04:54:17.941Z,1013.11
2019-02-20T04:55:17.920Z,1013.10
2019-02-20T04:56:17.866Z,1013.12
2019-02-20T04:57:17.828Z,1013.12
2019-02-20T04:58:17.790Z,1013.12
2019-02-20T04:59:17.756Z,1013.08
2019-02-20T05:00:17.716Z,1013.15
2019-02-20T05:01:17.683Z,1013.15
2019-02-20T05:02:17.654Z,1013.20
2019-02-20T05:03:17.611Z,1013.19
2019-02-20T05:04:17.566Z,1013.24
2019-02-20T05:05:17.535Z,1013.21
2019-02-20T05:06:17.490Z,1013.21
2019-02-20T05:07:17.461Z,1013.21
2019-02-20T05:08:17.423Z,1013.22
2019-02-20T05:09:17.421Z,1013.17
2019-02-20T05:10:17.355Z,1013.21
2019-02-20T05:11:17.315Z,1013.18
2019-02-20T05:12:17.292Z,1013.21
2019-02-20T05:13:17.239Z,1013.24
2019-02-20T05:14:17.202Z,1013.23
2019-02-20T05:15:17.166Z,1013.23
2019-02-20T05:16:17.135Z,1013.23
2019-02-20T05:17:17.083Z,1013.26
2019-02-20T05:18:17.054Z,1013.26
2019-02-20T05:19:17.011Z,1013.26
2019-02-20T05:20:16.970Z,1013.26
2019-02-20T05:21:16.941Z,1013.22
2019-02-20T05:22:16.906Z,1013.21
2019-02-20T05:23:16.877Z,1013.20
2019-02-20T05:24:24.224Z,1013.18
2019-02-20T05:25:16.793Z,1013.19
2019-02-20T05:26:16.761Z,1013.17
2019-02-20T05:27:16.718Z,1013.18
2019-02-20T05:28:16.684Z,1013.18
2019-02-20T05:29:16.645Z,1013.18
2019-02-20T05:30:16.608Z,1013.18
2019-02-20T05:31:16.769Z,1013.20
2019-02-20T05:32:16.534Z,1013.19
2019-02-20T05:33:16.489Z,1013.24
2019-02-20T05:34:16.464Z,1013.25
2019-02-20T05:35:16.418Z,1013.21
2019-02-20T05:36:16.378Z,1013.21
2019-02-20T05:37:16.344Z,1013.21
2019-02-20T05:38:16.307Z,1013.22
2019-02-20T05:39:16.277Z,1013.22
2019-02-20T05:40:16.252Z,1013.21
2019-02-20T05:41:16.187Z,1013.19
2019-02-20T05:42:16.158Z,1013.19
2019-02-20T05:43:16.121Z,1013.12
2019-02-20T05:44:16.081Z,1013.13
2019-02-20T05:45:16.052Z,1013.16
2019-02-20T05:46:16.009Z,1013.12
2019-02-20T05:47:15.969Z,1013.11
2019-02-20T05:48:15.929Z,1013.11
2019-02-20T05:49:15.912Z,1013.12
2019-02-20T05:50:15.857Z,1013.10
2019-02-20T05:51:15.823Z,1013.14
2019-02-20T05:52:15.784Z,1013.11
2019-02-20T05:53:15.749Z,1013.14
2019-02-20T05:54:15.739Z,1013.16
2019-02-20T05:55:15.706Z,1013.18
2019-02-20T05:56:15.645Z,1013.18
2019-02-20T05:57:15.603Z,1013.19
2019-02-20T05:58:15.558Z,1013.19
2019-02-20T05:59:15.527Z,1013.21
2019-02-20T06:00:15.490Z,1013.22
2019-02-20T06:01:15.449Z,1013.20
2019-02-20T06:02:15.413Z,1013.20
2019-02-20T06:03:15.379Z,1013.21
2019-02-20T06:04:15.353Z,1013.20
2019-02-20T06:05:15.303Z,1013.24
2019-02-20T06:06:15.265Z,1013.21
2019-02-20T06:07:15.226Z,1013.22
2019-02-20T06:08:15.192Z,1013.27
2019-02-20T06:09:15.149Z,1013.27
2019-02-20T06:10:15.125Z,1013.26
2019-02-20T06:11:15.631Z,1013.28
2019-02-20T06:12:15.048Z,1013.26
2019-02-20T06:13:15.010Z,1013.28
2019-02-20T06:14:14.965Z,1013.28
2019-02-20T06:15:14.934Z,1013.24
2019-02-20T06:16:14.898Z,1013.23
2019-02-20T06:17:14.860Z,1013.26
2019-02-20T06:18:14.821Z,1013.26
2019-02-20T06:19:14.787Z,1013.29
2019-02-20T06:20:14.745Z,1013.26
2019-02-20T06:21:16.316Z,1013.30
2019-02-20T06:22:14.669Z,1013.32
2019-02-20T06:23:14.630Z,1013.30
2019-02-20T06:24:14.603Z,1013.35
2019-02-20T06:25:14.582Z,1013.40
2019-02-20T06:26:14.516Z,1013.37
2019-02-20T06:27:14.481Z,1013.42
2019-02-20T06:28:14.450Z,1013.40
2019-02-20T06:29:14.412Z,1013.45
2019-02-20T06:30:14.375Z,1013.43
2019-02-20T06:31:14.340Z,1013.44
2019-02-20T06:32:14.300Z,1013.44
2019-02-20T06:33:14.265Z,1013.45
2019-02-20T06:34:14.224Z,1013.45
2019-02-20T06:35:14.200Z,1013.47
2019-02-20T06:36:14.156Z,1013.47
2019-02-20T06:37:14.105Z,1013.46
2019-02-20T06:38:14.075Z,1013.48
2019-02-20T06:39:14.037Z,1013.49
2019-02-20T06:40:14.014Z,1013.53
2019-02-20T06:41:13.959Z,1013.52
2019-02-20T06:42:13.937Z,1013.55
2019-02-20T06:43:13.886Z,1013.59
2019-02-20T06:44:13.860Z,1013.56
2019-02-20T06:45:13.816Z,1013.58
2019-02-20T06:46:13.777Z,1013.58
2019-02-20T06:47:13.742Z,1013.57
2019-02-20T06:48:13.701Z,1013.62
2019-02-20T06:49:13.666Z,1013.59
2019-02-20T06:50:13.621Z,1013.61
2019-02-20T06:51:13.590Z,1013.63
2019-02-20T06:52:13.551Z,1013.64
2019-02-20T06:53:13.510Z,1013.68
2019-02-20T06:54:13.472Z,1013.69
2019-02-20T06:55:13.437Z,1013.71
2019-02-20T06:56:13.398Z,1013.74
2019-02-20T06:57:13.366Z,1013.75
2019-02-20T06:58:13.328Z,1013.80
2019-02-20T06:59:13.295Z,1013.72
2019-02-20T07:00:13.259Z,1013.74
2019-02-20T07:01:13.221Z,1013.74
2019-02-20T07:02:13.173Z,1013.77
2019-02-20T07:03:13.140Z,1013.74
2019-02-20T07:04:13.103Z,1013.74
2019-02-20T07:05:13.062Z,1013.79
2019-02-20T07:06:13.030Z,1013.83
2019-02-20T07:07:12.992Z,1013.85
2019-02-20T07:08:12.951Z,1013.87
2019-02-20T07:09:15.157Z,1013.87
2019-02-20T07:10:12.872Z,1013.86
2019-02-20T07:11:12.837Z,1013.85
2019-02-20T07:12:12.802Z,1013.85
2019-02-20T07:13:12.763Z,1013.89
2019-02-20T07:14:12.727Z,1013.90
2019-02-20T07:15:12.683Z,1013.89
2019-02-20T07:16:12.648Z,1013.88
2019-02-20T07:17:12.635Z,1013.90
2019-02-20T07:18:12.586Z,1013.91
2019-02-20T07:19:12.539Z,1013.93
2019-02-20T07:20:12.498Z,1013.86
2019-02-20T07:21:12.466Z,1013.88
2019-02-20T07:22:12.422Z,1013.93
2019-02-20T07:23:12.392Z,1013.93
2019-02-20T07:24:12.341Z,1013.91
2019-02-20T07:25:12.310Z,1013.91
2019-02-20T07:26:12.284Z,1013.93
2019-02-20T07:27:12.236Z,1013.95
2019-02-20T07:28:12.198Z,1013.94
2019-02-20T07:29:12.163Z,1013.95
2019-02-20T07:30:12.123Z,1013.97
2019-02-20T07:31:12.087Z,1013.94
2019-02-20T07:32:12.056Z,1013.93
2019-02-20T07:33:12.009Z,1013.99
2019-02-20T07:34:11.982Z,1014.01
2019-02-20T07:35:11.932Z,1014.00
2019-02-20T07:36:11.898Z,1014.01
2019-02-20T07:37:11.866Z,1014.00
2019-02-20T07:38:11.824Z,1014.04
2019-02-20T07:39:11.793Z,1014.03
2019-02-20T07:40:11.770Z,1014.03
2019-02-20T07:41:11.715Z,1014.04
2019-02-20T07:42:11.689Z,1014.03
2019-02-20T07:43:11.650Z,1014.02
2019-02-20T07:44:11.625Z,1014.03
2019-02-20T07:45:11.567Z,1014.05
2019-02-20T07:46:11.528Z,1014.07
2019-02-20T07:47:19.153Z,1014.06
2019-02-20T07:48:11.457Z,1014.07
2019-02-20T07:49:11.437Z,1014.05
2019-02-20T07:50:11.373Z,1014.05
2019-02-20T07:51:11.349Z,1014.08
2019-02-20T07:52:11.309Z,1014.10
2019-02-20T07:53:11.264Z,1014.12
2019-02-20T07:54:11.233Z,1014.11
2019-02-20T07:55:13.686Z,1014.18
2019-02-20T07:56:11.191Z,1014.17
2019-02-20T07:57:11.119Z,1014.22
2019-02-20T07:58:11.086Z,1014.24
2019-02-20T07:59:11.046Z,1014.21
2019-02-20T08:00:11.038Z,1014.26
2019-02-20T08:01:10.975Z,1014.26
2019-02-20T08:02:10.930Z,1014.29
2019-02-20T08:03:10.903Z,1014.28
2019-02-20T08:04:10.868Z,1014.28
2019-02-20T08:05:10.824Z,1014.34
2019-02-20T08:06:10.790Z,1014.30
2019-02-20T08:07:10.754Z,1014.30
2019-02-20T08:08:10.723Z,1014.35
2019-02-20T08:09:10.679Z,1014.31
2019-02-20T08:10:10.643Z,1014.35
2019-02-20T08:11:10.610Z,1014.35
2019-02-20T08:12:10.568Z,1014.36
2019-02-20T08:13:10.532Z,1014.33
2019-02-20T08:14:10.501Z,1014.38
2019-02-20T08:15:10.472Z,1014.34
2019-02-20T08:16:10.423Z,1014.39
2019-02-20T08:17:10.385Z,1014.40
2019-02-20T08:18:10.349Z,1014.40
2019-02-20T08:19:10.308Z,1014.43
2019-02-20T08:20:10.272Z,1014.45
2019-02-20T08:21:10.240Z,1014.47
2019-02-20T08:22:10.206Z,1014.43
2019-02-20T08:23:10.164Z,1014.47
2019-02-20T08:24:10.164Z,1014.50
2019-02-20T08:25:10.102Z,1014.44
2019-02-20T08:26:10.065Z,1014.47
2019-02-20T08:27:10.038Z,1014.46
2019-02-20T08:28:09.991Z,1014.51
2019-02-20T08:29:09.947Z,1014.55
2019-02-20T08:30:09.911Z,1014.53
2019-02-20T08:31:09.882Z,1014.59
2019-02-20T08:32:09.829Z,1014.59
2019-02-20T08:33:09.804Z,1014.56
2019-02-20T08:34:09.770Z,1014.58
2019-02-20T08:35:09.740Z,1014.58
2019-02-20T08:36:09.686Z,1014.57
2019-02-20T08:37:09.662Z,1014.61
2019-02-20T08:38:09.622Z,1014.62
2019-02-20T08:39:09.599Z,1014.59
2019-02-20T08:40:09.545Z,1014.62
2019-02-20T08:41:09.521Z,1014.65
2019-02-20T08:42:09.485Z,1014.69
2019-02-20T08:43:09.446Z,1014.71
2019-02-20T08:44:09.408Z,1014.68
2019-02-20T08:45:09.370Z,1014.72
2019-02-20T08:46:09.343Z,1014.74
2019-02-20T08:47:09.299Z,1014.71
2019-02-20T08:48:09.261Z,1014.74
2019-02-20T08:49:09.221Z,1014.75
2019-02-20T08:50:09.191Z,1014.73
2019-02-20T08:51:09.188Z,1014.72
2019-02-20T08:52:09.113Z,1014.70
2019-02-20T08:53:09.087Z,1014.70
2019-02-20T08:54:09.051Z,1014.67
2019-02-20T08:55:09.012Z,1014.69
2019-02-20T08:56:08.976Z,1014.68
2019-02-20T08:57:08.943Z,1014.65
2019-02-20T08:58:08.903Z,1014.68
2019-02-20T08:59:08.876Z,1014.67
2019-02-20T09:00:08.841Z,1014.64
2019-02-20T09:01:08.802Z,1014.69
2019-02-20T09:02:08.761Z,1014.67
2019-02-20T09:03:08.737Z,1014.66
2019-02-20T09:04:08.693Z,1014.68
2019-02-20T09:05:08.661Z,1014.71
2019-02-20T09:06:08.627Z,1014.71
2019-02-20T09:07:08.593Z,1014.71
2019-02-20T09:08:08.558Z,1014.74
2019-02-20T09:09:08.512Z,1014.75
2019-02-20T09:10:08.488Z,1014.77
2019-02-20T09:11:08.448Z,1014.77
2019-02-20T09:12:08.418Z,1014.80
2019-02-20T09:13:08.378Z,1014.76
2019-02-20T09:14:08.343Z,1014.74
2019-02-20T09:15:08.311Z,1014.72
2019-02-20T09:16:08.283Z,1014.77
2019-02-20T09:17:08.252Z,1014.73
2019-02-20T09:18:08.204Z,1014.74
2019-02-20T09:19:08.173Z,1014.78
2019-02-20T09:20:08.133Z,1014.71
2019-02-20T09:21:08.098Z,1014.71
2019-02-20T09:22:08.083Z,1014.72
2019-02-20T09:23:08.033Z,1014.74
2019-02-20T09:24:08.006Z,1014.74
2019-02-20T09:25:07.962Z,1014.74
2019-02-20T09:26:07.924Z,1014.79
2019-02-20T09:27:07.894Z,1014.80
2019-02-20T09:28:07.862Z,1014.82
2019-02-20T09:29:07.825Z,1014.77
2019-02-20T09:30:07.794Z,1014.81
2019-02-20T09:31:07.753Z,1014.76
2019-02-20T09:32:07.723Z,1014.80
2019-02-20T09:33:07.693Z,1014.81
2019-02-20T09:34:07.660Z,1014.77
2019-02-20T09:35:07.622Z,1014.76
2019-02-20T09:36:07.578Z,1014.79
2019-02-20T09:37:07.544Z,1014.75
2019-02-20T09:38:07.509Z,1014.74
2019-02-20T09:39:07.485Z,1014.79
2019-02-20T09:40:07.443Z,1014.78
2019-02-20T09:41:07.419Z,1014.79
2019-02-20T09:42:07.366Z,1014.82
2019-02-20T09:43:07.354Z,1014.83
2019-02-20T09:44:07.310Z,1014.84
2019-02-20T09:45:07.282Z,1014.80
2019-02-20T09:46:07.258Z,1014.79
2019-02-20T09:47:07.212Z,1014.77
2019-02-20T09:48:07.184Z,1014.79
2019-02-20T09:49:07.149Z,1014.82
2019-02-20T09:50:07.106Z,1014.83
2019-02-20T09:51:07.071Z,1014.83
2019-02-20T09:52:07.032Z,1014.84
2019-02-20T09:53:07.000Z,1014.86
2019-02-20T09:54:06.965Z,1014.89
2019-02-20T09:55:06.930Z,1014.97
2019-02-20T09:56:06.905Z,1015.26
2019-02-20T09:57:06.875Z,1015.42
2019-02-20T09:58:06.833Z,1015.78
2019-02-20T09:59:06.801Z,1015.34
2019-02-20T10:00:06.773Z,1016.84
2019-02-20T10:01:06.744Z,1016.86
2019-02-20T10:02:06.704Z,1016.77
2019-02-20T10:03:06.680Z,1017.30
2019-02-20T10:04:06.649Z,1017.15
2019-02-20T10:05:06.599Z,1016.67
2019-02-20T10:06:06.581Z,1016.87
2019-02-20T10:07:06.550Z,1016.88
2019-02-20T10:08:06.509Z,1015.09
2019-02-20T10:09:06.490Z,1015.45
2019-02-20T10:10:06.451Z,1016.61
2019-02-20T10:11:06.434Z,1016.80
2019-02-20T10:12:06.395Z,1016.79
2019-02-20T10:13:06.364Z,1016.79
2019-02-20T10:14:06.340Z,1016.83
2019-02-20T10:15:06.319Z,1016.59
2019-02-20T10:16:06.286Z,1016.36
2019-02-20T10:17:06.261Z,1016.60
2019-02-20T10:18:07.613Z,1016.57
2019-02-20T10:19:06.209Z,1016.76
2019-02-20T10:20:06.176Z,1016.56
2019-02-20T10:21:06.151Z,1016.93
2019-02-20T10:22:06.129Z,1016.73
2019-02-20T10:23:06.102Z,1016.69
2019-02-20T10:24:06.070Z,1016.65
2019-02-20T10:25:06.054Z,1016.66
2019-02-20T10:26:06.026Z,1016.56
2019-02-20T10:27:06.009Z,1016.48
2019-02-20T10:28:05.978Z,1016.58
2019-02-20T10:29:05.952Z,1016.52
2019-02-20T10:30:05.923Z,1016.33
2019-02-20T10:31:05.901Z,1015.49
2019-02-20T10:32:05.873Z,1016.40
2019-02-20T10:33:05.851Z,1015.43
2019-02-20T10:34:05.832Z,1016.22
2019-02-20T10:35:05.802Z,1016.11
2019-02-20T10:36:05.788Z,1016.39
2019-02-20T10:37:05.765Z,1016.55
2019-02-20T10:38:05.728Z,1016.39
2019-02-20T10:39:05.723Z,1016.48
2019-02-20T10:40:05.675Z,1016.54
2019-02-20T10:41:05.659Z,1016.25
2019-02-20T10:42:05.634Z,1015.95
2019-02-20T10:43:05.609Z,1016.28
2019-02-20T10:44:05.578Z,1015.83
2019-02-20T10:45:05.560Z,1015.70
2019-02-20T10:46:05.532Z,1015.48
2019-02-20T10:47:05.507Z,1015.58
2019-02-20T10:48:05.488Z,1015.56
2019-02-20T10:49:05.463Z,1015.48
2019-02-20T10:50:05.444Z,1015.45
2019-02-20T10:51:05.413Z,1015.45
2019-02-20T10:52:05.379Z,1015.74
2019-02-20T10:53:05.358Z,1015.62
2019-02-20T10:54:05.329Z,1015.62
2019-02-20T10:55:05.304Z,1015.86
2019-02-20T10:56:09.474Z,1015.46
2019-02-20T10:57:05.253Z,1015.18
2019-02-20T10:58:05.224Z,1015.82
2019-02-20T10:59:05.213Z,1015.49
2019-02-20T11:00:05.187Z,1015.39
2019-02-20T11:01:05.150Z,1015.30
2019-02-20T11:02:05.120Z,1015.25
2019-02-20T11:03:05.085Z,1015.23
2019-02-20T11:04:05.066Z,1015.21
2019-02-20T11:05:05.031Z,1015.31
2019-02-20T11:06:05.006Z,1015.76
2019-02-20T11:07:04.974Z,1015.68
2019-02-20T11:08:04.965Z,1015.43
2019-02-20T11:09:04.919Z,1015.37
2019-02-20T11:10:04.889Z,1015.31
2019-02-20T11:11:04.864Z,1015.43
2019-02-20T11:12:04.850Z,1015.51
2019-02-20T11:13:04.813Z,1015.58
2019-02-20T11:14:04.776Z,1015.46
2019-02-20T11:15:04.745Z,1015.48
2019-02-20T11:16:04.724Z,1015.31
2019-02-20T11:17:04.701Z,1015.28
2019-02-20T11:18:04.671Z,1015.29
2019-02-20T11:19:04.640Z,1015.38
2019-02-20T11:20:04.611Z,1015.35
2019-02-20T11:21:04.580Z,1015.39
2019-02-20T11:22:04.555Z,1015.34
2019-02-20T11:23:04.524Z,1015.29
2019-02-20T11:24:04.500Z,1015.34
2019-02-20T11:25:04.466Z,1015.31
2019-02-20T11:26:04.907Z,1015.29
2019-02-20T11:27:04.416Z,1015.34
2019-02-20T11:28:04.377Z,1015.60
2019-02-20T11:29:04.352Z,1015.40
2019-02-20T11:30:04.321Z,1015.33
2019-02-20T11:31:04.294Z,1015.43
2019-02-20T11:32:04.263Z,1015.44
2019-02-20T11:33:04.235Z,1015.53
2019-02-20T11:34:04.211Z,1015.64
2019-02-20T11:35:04.190Z,1015.59
2019-02-20T11:36:04.150Z,1015.62
2019-02-20T11:37:04.113Z,1015.53
2019-02-20T11:38:04.083Z,1015.65
2019-02-20T11:39:04.056Z,1015.57
2019-02-20T11:40:04.041Z,1015.59
2019-02-20T11:41:04.013Z,1015.50
2019-02-20T11:42:03.976Z,1015.39
2019-02-20T11:43:03.951Z,1015.49
2019-02-20T11:44:03.918Z,1015.40
2019-02-20T11:45:03.902Z,1015.34
2019-02-20T11:46:03.879Z,1015.38
2019-02-20T11:47:03.837Z,1015.39
2019-02-20T11:48:03.813Z,1015.40
2019-02-20T11:49:03.777Z,1015.37
2019-02-20T11:50:03.761Z,1015.38
2019-02-20T11:51:03.720Z,1015.36
2019-02-20T11:52:03.687Z,1015.39
2019-02-20T11:53:03.666Z,1015.48
2019-02-20T11:54:03.629Z,1015.51
2019-02-20T11:55:05.406Z,1015.50
2019-02-20T11:56:03.568Z,1015.48
2019-02-20T11:57:03.548Z,1015.34
2019-02-20T11:58:03.516Z,1015.43
2019-02-20T11:59:03.497Z,1015.49
2019-02-20T12:00:03.472Z,1015.48
2019-02-20T12:01:03.440Z,1015.45
2019-02-20T12:02:03.411Z,1015.54
2019-02-20T12:03:03.380Z,1015.55
2019-02-20T12:04:03.349Z,1015.51
2019-02-20T12:05:03.321Z,1015.37